Time;durP1;ratioP1;P1;durP2;ratioP2;P2;SDS_P1;SDS_P2;PMS_P1;PMS_P2;Temp;Humidity;BMP_temperature;BMP_pressure;BME280_temperature;BME280_humidity;BME280_pressure;Samples;Min_cycle;Max_cycle;Signal;HPM_P1;HPM_P2
2023/09/16 00:02:08;;;;;;;8.03;7.33;;;16.10;1.00;;;;;;4969474;28;20394;-88
2023/09/16 00:04:34;;;;;;;8.43;7.63;;;19.80;1.00;;;;;;4952838;29;20457;-86
2023/09/16 00:06:59;;;;;;;8.15;7.35;;;16.60;1.00;;;;;;4947622;29;20406;-87
2023/09/16 00:09:25;;;;;;;7.63;6.93;;;16.40;1.00;;;;;;4954781;28;20458;-87
2023/09/16 00:11:51;;;;;;;8.60;7.80;;;16.20;1.00;;;;;;4954993;28;20463;-86
2023/09/16 00:14:21;;;;;;;7.83;7.13;;;16.60;1.00;;;;;;4968591;28;20392;-88
2023/09/16 00:16:46;;;;;;;8.43;7.40;;;19.30;1.00;;;;;;4980182;28;20648;-88
2023/09/16 00:19:12;;;;;;;7.50;6.80;;;19.00;1.00;;;;;;4972841;29;20396;-87
2023/09/16 00:21:40;;;;;;;7.70;7.00;;;15.80;1.00;;;;;;4973412;29;20410;-87
2023/09/16 00:24:06;;;;;;;7.83;7.07;;;16.20;1.00;;;;;;4975019;28;20393;-88
2023/09/16 00:26:34;;;;;;;8.20;7.40;;;16.60;1.00;;;;;;4973192;28;20421;-88
2023/09/16 00:29:00;;;;;;;8.40;7.60;;;19.50;1.00;;;;;;4956378;29;20794;-87
2023/09/16 00:31:25;;;;;;;8.43;7.50;;;17.50;1.00;;;;;;4955269;28;20442;-87
2023/09/16 00:33:51;;;;;;;8.27;7.47;;;17.00;1.00;;;;;;4958438;28;20398;-88
2023/09/16 00:36:17;;;;;;;9.40;8.00;;;17.80;1.00;;;;;;4959138;28;20441;-88
2023/09/16 00:38:42;;;;;;;8.20;7.40;;;19.00;1.00;;;;;;4977768;29;20400;-88
2023/09/16 00:41:08;;;;;;;9.05;7.63;;;16.50;1.00;;;;;;4977932;28;20420;-89
2023/09/16 00:43:34;;;;;;;8.30;6.93;;;18.00;1.00;;;;;;4977696;28;20409;-88
2023/09/16 00:45:59;;;;;;;8.30;7.60;;;15.50;1.00;;;;;;4973748;29;20468;-88
2023/09/16 00:48:25;;;;;;;7.18;6.57;;;15.80;1.00;;;;;;4960354;29;20412;-88
2023/09/16 00:50:51;;;;;;;7.40;6.70;;;16.40;1.00;;;;;;4964717;28;20418;-88
2023/09/16 00:53:17;;;;;;;8.50;7.80;;;15.30;1.00;;;;;;4956556;28;20390;-88
2023/09/16 00:55:47;;;;;;;8.60;7.80;;;15.40;1.00;;;;;;4955596;29;20469;-88
2023/09/16 00:58:17;;;;;;;8.05;7.25;;;19.00;1.00;;;;;;4955127;29;20409;-88
2023/09/16 01:00:42;;;;;;;7.90;7.20;;;15.90;1.00;;;;;;4954761;29;20914;-87
2023/09/16 01:03:09;;;;;;;8.77;7.97;;;18.10;1.00;;;;;;4954824;28;20405;-87
2023/09/16 01:05:35;;;;;;;8.40;7.70;;;15.00;1.00;;;;;;4954755;29;20393;-88
2023/09/16 01:08:01;;;;;;;9.13;8.23;;;15.90;1.00;;;;;;4954430;29;20485;-89
2023/09/16 01:10:27;;;;;;;9.60;8.60;;;16.90;1.00;;;;;;4954525;29;20424;-88
2023/09/16 01:12:54;;;;;;;9.60;8.60;;;16.70;1.00;;;;;;4954746;28;20394;-87
2023/09/16 01:15:36;;;;;;;8.90;8.00;;;18.30;1.00;;;;;;4962186;29;20993;-90
2023/09/16 01:18:15;;;;;;;8.60;7.80;;;17.20;1.00;;;;;;4953211;29;20426;-89
2023/09/16 01:20:40;;;;;;;9.00;8.15;;;16.20;1.00;;;;;;4968729;28;20452;-87
2023/09/16 01:23:07;;;;;;;8.50;7.60;;;16.20;1.00;;;;;;4954956;28;20437;-87
2023/09/16 01:25:33;;;;;;;9.35;8.55;;;17.30;1.00;;;;;;4954644;29;20901;-88
2023/09/16 01:27:58;;;;;;;8.70;7.93;;;16.40;1.00;;;;;;4954825;29;20396;-87
2023/09/16 01:30:27;;;;;;;8.13;7.43;;;19.50;1.00;;;;;;4954320;29;20446;-87
2023/09/16 01:33:20;;;;;;;8.40;7.60;;;16.70;1.00;;;;;;4954720;28;20788;-88
2023/09/16 01:35:48;;;;;;;9.02;8.13;;;18.20;1.00;;;;;;4954366;29;20930;-88
2023/09/16 01:38:16;;;;;;;7.85;7.10;;;15.80;1.00;;;;;;4954309;29;20400;-87
2023/09/16 01:40:44;;;;;;;8.27;7.47;;;16.40;1.00;;;;;;4954105;29;20397;-87
2023/09/16 01:43:10;;;;;;;8.70;7.80;;;19.30;1.00;;;;;;4956336;28;20390;-88
2023/09/16 01:45:40;;;;;;;8.80;7.50;;;17.40;1.00;;;;;;4976688;28;20433;-86
2023/09/16 01:48:06;;;;;;;8.82;7.93;;;15.60;1.00;;;;;;4957298;29;20410;-88
2023/09/16 01:50:31;;;;;;;9.80;8.80;;;15.60;1.00;;;;;;4955250;29;20425;-88
2023/09/16 01:52:57;;;;;;;8.97;8.07;;;17.60;1.00;;;;;;4972683;28;20537;-86
2023/09/16 01:55:23;;;;;;;8.50;7.70;;;17.80;1.00;;;;;;4961597;28;20409;-88
2023/09/16 01:57:49;;;;;;;8.70;7.40;;;15.90;1.00;;;;;;4974964;28;20484;-86
2023/09/16 02:00:15;;;;;;;9.90;9.00;;;15.60;1.00;;;;;;4958485;29;20405;-86
2023/09/16 02:02:40;;;;;;;10.02;9.05;;;15.90;1.00;;;;;;4959476;29;20401;-88
2023/09/16 02:05:06;;;;;;;8.77;7.97;;;15.60;1.00;;;;;;4957868;29;20405;-88
2023/09/16 02:07:32;;;;;;;10.10;9.10;;;16.00;1.00;;;;;;4957079;29;20465;-88
2023/09/16 02:09:57;;;;;;;9.00;8.10;;;17.90;1.00;;;;;;4956723;29;21004;-88
2023/09/16 02:12:23;;;;;;;8.63;7.80;;;15.70;1.00;;;;;;4957459;29;20481;-88
2023/09/16 02:14:51;;;;;;;9.57;8.07;;;15.40;1.00;;;;;;4957276;29;20469;-87
2023/09/16 02:17:17;;;;;;;9.20;8.40;;;15.70;1.00;;;;;;4955408;29;20489;-88
2023/09/16 02:19:43;;;;;;;9.52;8.63;;;15.50;1.00;;;;;;4953928;29;20802;-88
2023/09/16 02:22:08;;;;;;;8.93;8.13;;;17.40;1.00;;;;;;4955362;28;20396;-88
2023/09/16 02:24:34;;;;;;;8.65;7.85;;;18.30;1.00;;;;;;4953725;29;20489;-88
2023/09/16 02:27:00;;;;;;;9.20;7.72;;;17.00;1.00;;;;;;4953581;29;20405;-87
2023/09/16 02:29:25;;;;;;;9.43;8.63;;;14.10;1.00;;;;;;4952683;29;20951;-88
2023/09/16 02:31:51;;;;;;;9.10;8.30;;;14.70;1.00;;;;;;4953364;28;20778;-87
2023/09/16 02:34:17;;;;;;;9.07;8.15;;;16.90;1.00;;;;;;4953672;29;20461;-87
2023/09/16 02:36:42;;;;;;;9.30;8.40;;;19.00;1.00;;;;;;4953659;29;20406;-88
2023/09/16 02:39:08;;;;;;;8.27;7.47;;;15.00;1.00;;;;;;4953150;29;20421;-87
2023/09/16 02:41:34;;;;;;;8.35;7.65;;;15.70;1.00;;;;;;4952651;29;20947;-87
2023/09/16 02:43:59;;;;;;;8.30;7.50;;;17.90;1.00;;;;;;4953394;28;20449;-87
2023/09/16 02:46:25;;;;;;;8.80;8.00;;;14.70;1.00;;;;;;4953666;29;20492;-88
2023/09/16 02:48:50;;;;;;;7.60;6.80;;;14.80;1.00;;;;;;4953462;29;20922;-87
2023/09/16 02:51:16;;;;;;;8.10;7.40;;;14.60;1.00;;;;;;4952678;29;20803;-88
2023/09/16 02:53:43;;;;;;;7.90;7.27;;;15.80;1.00;;;;;;4968761;28;20414;-86
2023/09/16 02:56:09;;;;;;;7.85;7.15;;;15.70;1.00;;;;;;4951330;28;20410;-88
2023/09/16 02:58:35;;;;;;;8.38;7.68;;;15.60;1.00;;;;;;4953979;28;20396;-88
2023/09/16 03:01:08;;;;;;;8.68;7.88;;;14.00;1.00;;;;;;4953614;28;20390;-88
2023/09/16 03:03:34;;;;;;;7.80;7.00;;;15.90;1.00;;;;;;4952785;28;20386;-87
2023/09/16 03:05:59;;;;;;;7.60;6.90;;;15.70;1.00;;;;;;4959834;29;20940;-88
2023/09/16 03:08:25;;;;;;;8.20;7.50;;;18.20;1.00;;;;;;4952883;29;20444;-88
2023/09/16 03:10:50;;;;;;;7.60;6.90;;;16.00;1.00;;;;;;4954091;29;20599;-88
2023/09/16 03:13:16;;;;;;;7.53;6.82;;;18.20;1.00;;;;;;4953601;28;20413;-88
2023/09/16 03:15:47;;;;;;;7.73;7.10;;;15.70;1.00;;;;;;4953204;29;20546;-88
2023/09/16 03:18:13;;;;;;;7.88;7.18;;;15.50;1.00;;;;;;4954059;29;20428;-87
2023/09/16 03:20:38;;;;;;;7.30;6.60;;;14.30;1.00;;;;;;4950389;29;20413;-85
2023/09/16 03:23:04;;;;;;;7.30;6.70;;;18.10;1.00;;;;;;4947397;29;20393;-86
2023/09/16 03:25:29;;;;;;;7.37;6.77;;;15.20;1.00;;;;;;4944360;29;20421;-86
2023/09/16 03:27:55;;;;;;;6.60;6.00;;;18.00;1.00;;;;;;4960567;28;20454;-86
2023/09/16 03:30:21;;;;;;;7.70;7.00;;;14.80;1.00;;;;;;4957632;28;20455;-86
2023/09/16 03:32:46;;;;;;;7.80;7.00;;;16.80;1.00;;;;;;4934696;29;20823;-85
2023/09/16 03:35:12;;;;;;;7.70;6.30;;;16.50;1.00;;;;;;4953074;29;20405;-87
2023/09/16 03:37:37;;;;;;;7.67;6.87;;;15.30;1.00;;;;;;4953336;29;20402;-87
2023/09/16 03:40:03;;;;;;;7.10;6.40;;;14.50;1.00;;;;;;4935032;29;20396;-87
2023/09/16 03:42:29;;;;;;;7.00;6.40;;;15.40;1.00;;;;;;4943093;28;20387;-85
2023/09/16 03:44:54;;;;;;;6.30;5.70;;;15.40;1.00;;;;;;4947877;28;20426;-85
2023/09/16 03:47:20;;;;;;;6.90;6.20;;;15.30;1.00;;;;;;4970232;28;20894;-86
2023/09/16 03:49:45;;;;;;;6.50;5.90;;;17.80;1.00;;;;;;4956123;29;20432;-86
2023/09/16 03:52:11;;;;;;;6.65;5.90;;;17.10;1.00;;;;;;4972946;28;20425;-86
2023/09/16 03:54:36;;;;;;;7.57;6.50;;;14.90;1.00;;;;;;4957491;29;20789;-87
2023/09/16 03:57:03;;;;;;;7.30;6.20;;;14.40;1.00;;;;;;4955720;29;20402;-87
2023/09/16 03:59:28;;;;;;;6.78;6.18;;;15.20;1.00;;;;;;4955111;29;20397;-86
2023/09/16 04:01:54;;;;;;;7.00;6.30;;;17.80;1.00;;;;;;4954644;28;20390;-86
2023/09/16 04:04:19;;;;;;;6.77;6.07;;;14.40;1.00;;;;;;4954434;29;20406;-86
2023/09/16 04:06:45;;;;;;;6.72;6.18;;;14.70;1.00;;;;;;4954327;28;20769;-87
2023/09/16 04:09:11;;;;;;;7.43;6.20;;;17.20;1.00;;;;;;4953779;29;20430;-86
2023/09/16 04:11:36;;;;;;;7.23;6.07;;;17.30;1.00;;;;;;4955237;28;20400;-86
2023/09/16 04:14:02;;;;;;;6.78;6.18;;;17.40;1.00;;;;;;4955472;28;20949;-86
2023/09/16 04:16:27;;;;;;;6.67;5.77;;;14.50;1.00;;;;;;4953970;29;21042;-86
2023/09/16 04:18:55;;;;;;;5.90;5.40;;;14.10;1.00;;;;;;4956107;29;20433;-87
2023/09/16 04:21:21;;;;;;;5.60;5.20;;;17.10;1.00;;;;;;4954925;29;20471;-87
2023/09/16 04:23:46;;;;;;;6.03;5.20;;;15.00;1.00;;;;;;4954512;28;20912;-88
2023/09/16 04:26:15;;;;;;;6.30;5.70;;;17.60;1.00;;;;;;4953230;29;20925;-87
2023/09/16 04:28:40;;;;;;;6.20;5.70;;;15.20;1.00;;;;;;4954082;29;20444;-88
2023/09/16 04:31:08;;;;;;;6.53;5.50;;;15.20;1.00;;;;;;4954497;28;20874;-87
2023/09/16 04:33:34;;;;;;;5.85;5.35;;;17.10;1.00;;;;;;4962516;28;20388;-87
2023/09/16 04:36:00;;;;;;;5.63;5.13;;;17.00;1.00;;;;;;4962088;28;20433;-87
2023/09/16 04:38:26;;;;;;;5.43;4.90;;;17.80;1.00;;;;;;4954995;28;20496;-88
2023/09/16 04:40:51;;;;;;;5.90;5.30;;;14.70;1.00;;;;;;4952875;29;20424;-87
2023/09/16 04:43:17;;;;;;;6.27;5.10;;;14.00;1.00;;;;;;4954185;28;20393;-88
2023/09/16 04:45:49;;;;;;;5.30;4.80;;;14.80;1.00;;;;;;4954881;29;20393;-88
2023/09/16 04:48:15;;;;;;;5.80;5.30;;;15.30;1.00;;;;;;4970899;28;20878;-88
2023/09/16 04:50:45;;;;;;;5.40;4.90;;;15.80;1.00;;;;;;4954378;28;20425;-87
2023/09/16 04:53:11;;;;;;;5.10;4.32;;;15.30;1.00;;;;;;4955110;28;20476;-88
2023/09/16 04:55:37;;;;;;;5.03;4.53;;;15.00;1.00;;;;;;4955945;29;20899;-88
2023/09/16 04:58:03;;;;;;;5.15;4.53;;;15.00;1.00;;;;;;4953546;29;20417;-88
2023/09/16 05:00:33;;;;;;;4.70;4.30;;;18.00;1.00;;;;;;4952653;28;20474;-87
2023/09/16 05:02:59;;;;;;;5.05;4.55;;;14.90;1.00;;;;;;4953489;28;20404;-88
2023/09/16 05:05:25;;;;;;;5.00;4.50;;;14.30;1.00;;;;;;4953997;29;20452;-88
2023/09/16 05:07:50;;;;;;;5.20;4.70;;;14.00;1.00;;;;;;4953596;29;20902;-88
2023/09/16 05:10:16;;;;;;;5.27;4.50;;;17.40;1.00;;;;;;4965366;29;20400;-88
2023/09/16 05:12:42;;;;;;;4.78;4.22;;;15.40;1.00;;;;;;4954802;28;20425;-86
2023/09/16 05:15:09;;;;;;;6.00;4.60;;;15.30;1.00;;;;;;4954115;29;20400;-87
2023/09/16 05:17:36;;;;;;;4.63;4.22;;;15.20;1.00;;;;;;4954968;28;20391;-88
2023/09/16 05:20:03;;;;;;;4.80;4.40;;;17.10;1.00;;;;;;4957077;29;20410;-88
2023/09/16 05:22:28;;;;;;;4.70;4.30;;;15.30;1.00;;;;;;4958168;28;20402;-87
2023/09/16 05:24:54;;;;;;;5.20;4.20;;;14.70;1.00;;;;;;4971525;28;20461;-87
2023/09/16 05:27:20;;;;;;;5.20;4.70;;;14.40;1.00;;;;;;4967765;28;20414;-87
2023/09/16 05:29:54;;;;;;;4.50;4.10;;;15.90;1.00;;;;;;4970072;28;20432;-87
2023/09/16 05:32:20;;;;;;;4.70;4.30;;;14.20;1.00;;;;;;4968682;28;20969;-86
2023/09/16 05:34:51;;;;;;;4.70;4.20;;;15.30;1.00;;;;;;4965512;28;20500;-88
2023/09/16 05:37:17;;;;;;;5.60;4.53;;;16.40;1.00;;;;;;4957996;29;20481;-86
2023/09/16 05:39:43;;;;;;;4.60;4.20;;;17.30;1.00;;;;;;4959017;29;20485;-86
2023/09/16 05:42:08;;;;;;;4.50;4.10;;;14.70;1.00;;;;;;4959570;28;20390;-87
2023/09/16 05:44:36;;;;;;;5.53;3.90;;;14.50;1.00;;;;;;4959235;29;20413;-87
2023/09/16 05:47:02;;;;;;;4.40;4.00;;;17.40;1.00;;;;;;4961675;28;20397;-86
2023/09/16 05:49:28;;;;;;;4.60;4.20;;;15.40;1.00;;;;;;4977286;28;20424;-86
2023/09/16 05:51:53;;;;;;;4.70;4.30;;;15.30;1.00;;;;;;4961277;28;20405;-87
2023/09/16 05:54:19;;;;;;;4.53;4.13;;;15.10;1.00;;;;;;4958813;29;20484;-86
2023/09/16 05:56:46;;;;;;;5.55;4.10;;;16.30;1.00;;;;;;4958621;28;20402;-88
2023/09/16 05:59:13;;;;;;;4.57;3.90;;;15.50;1.00;;;;;;4962917;29;20408;-88
2023/09/16 06:01:39;;;;;;;4.40;4.00;;;18.30;1.00;;;;;;4962183;29;20398;-87
2023/09/16 06:04:05;;;;;;;4.17;3.77;;;15.60;1.00;;;;;;4976330;28;20654;-85
2023/09/16 06:06:30;;;;;;;4.70;4.30;;;15.70;1.00;;;;;;4978457;28;20528;-85
2023/09/16 06:08:56;;;;;;;4.68;4.35;;;17.50;1.00;;;;;;4978692;28;20409;-85
2023/09/16 06:11:26;;;;;;;4.15;3.75;;;17.40;1.00;;;;;;4974019;28;20421;-88
2023/09/16 06:13:52;;;;;;;4.47;4.07;;;15.30;1.00;;;;;;4962980;28;20406;-87
2023/09/16 06:18:53;;;;;;;4.38;3.97;;;15.80;1.00;;;;;;5047274;23;20446;-86
2023/09/16 06:21:19;;;;;;;4.60;4.20;;;17.70;1.00;;;;;;5014498;28;20415;-87
2023/09/16 06:23:45;;;;;;;4.17;3.77;;;15.30;1.00;;;;;;4998132;28;20424;-87
2023/09/16 06:26:11;;;;;;;4.27;3.87;;;16.10;1.00;;;;;;4981942;28;20462;-87
2023/09/16 06:28:37;;;;;;;4.67;3.73;;;15.90;1.00;;;;;;4989165;28;21079;-87
2023/09/16 06:31:03;;;;;;;4.20;3.50;;;15.60;1.00;;;;;;4981068;28;20422;-88
2023/09/16 06:33:29;;;;;;;3.97;3.67;;;15.30;1.00;;;;;;5001643;28;20481;-87
2023/09/16 06:35:54;;;;;;;4.47;4.00;;;17.80;1.00;;;;;;4986274;28;20447;-87
2023/09/16 06:38:20;;;;;;;4.80;3.80;;;17.90;1.00;;;;;;4981084;28;20401;-87
2023/09/16 06:40:45;;;;;;;4.05;3.70;;;16.10;1.00;;;;;;4986355;28;20434;-88
2023/09/16 06:43:11;;;;;;;4.70;3.53;;;14.70;1.00;;;;;;4998889;28;20400;-88
2023/09/16 06:45:37;;;;;;;3.80;3.50;;;16.10;1.00;;;;;;4999995;28;20398;-88
2023/09/16 06:48:02;;;;;;;3.70;3.40;;;16.60;1.00;;;;;;5013255;28;20395;-88
2023/09/16 06:50:28;;;;;;;3.80;3.50;;;16.70;1.00;;;;;;5018362;28;20399;-87
2023/09/16 06:52:53;;;;;;;6.40;4.00;;;16.50;1.00;;;;;;5012789;28;20445;-88
2023/09/16 06:55:19;;;;;;;3.80;3.50;;;16.50;1.00;;;;;;4995281;28;20391;-89
2023/09/16 06:57:45;;;;;;;4.07;3.20;;;16.90;1.00;;;;;;4995015;28;20402;-89
2023/09/16 07:00:11;;;;;;;5.83;3.77;;;15.50;1.00;;;;;;4998113;28;20394;-88
2023/09/16 07:02:36;;;;;;;3.75;3.35;;;17.20;1.00;;;;;;4994625;28;20457;-88
2023/09/16 07:05:02;;;;;;;5.03;3.85;;;17.30;1.00;;;;;;5015346;28;20419;-87
2023/09/16 07:07:28;;;;;;;4.97;4.00;;;17.40;1.00;;;;;;4995263;28;20765;-89
2023/09/16 07:09:57;;;;;;;4.03;3.72;;;16.10;1.00;;;;;;4981420;28;20466;-88
2023/09/16 07:12:24;;;;;;;3.90;3.60;;;17.50;1.00;;;;;;4979164;28;20510;-89
2023/09/16 07:14:50;;;;;;;4.80;4.40;;;18.50;1.00;;;;;;4993766;28;20391;-90
2023/09/16 07:17:16;;;;;;;4.10;3.80;;;19.30;1.00;;;;;;4994309;28;20406;-89
2023/09/16 07:19:41;;;;;;;4.30;3.90;;;20.60;1.00;;;;;;4994012;28;20394;-89
2023/09/16 07:22:07;;;;;;;4.00;3.60;;;19.20;1.00;;;;;;5009766;28;20406;-88
2023/09/16 07:24:32;;;;;;;5.23;4.70;;;16.70;1.00;;;;;;4994572;28;20391;-91
2023/09/16 07:27:03;;;;;;;5.22;4.72;;;18.40;1.00;;;;;;4996173;28;20398;-89
2023/09/16 07:29:28;;;;;;;5.53;5.03;;;18.60;1.00;;;;;;5001233;28;20410;-90
2023/09/16 07:31:54;;;;;;;5.20;4.25;;;19.70;1.00;;;;;;5012851;28;20921;-89
2023/09/16 07:34:21;;;;;;;4.60;4.20;;;18.60;1.00;;;;;;5014618;28;20389;-89
2023/09/16 07:36:47;;;;;;;4.60;4.20;;;20.50;1.00;;;;;;5008827;28;20453;-89
2023/09/16 07:39:13;;;;;;;5.22;4.30;;;17.60;1.00;;;;;;4993232;28;20394;-89
2023/09/16 07:41:39;;;;;;;4.87;4.20;;;20.00;1.00;;;;;;4983438;28;20399;-88
2023/09/16 07:44:05;;;;;;;5.22;4.70;;;18.90;1.00;;;;;;4975322;28;20407;-89
2023/09/16 07:46:31;;;;;;;4.90;4.50;;;18.90;1.00;;;;;;4974725;28;20483;-89
2023/09/16 07:48:56;;;;;;;4.67;4.27;;;21.10;1.00;;;;;;5016645;28;20400;-89
2023/09/16 07:51:22;;;;;;;4.70;4.30;;;19.40;1.00;;;;;;5020702;28;20516;-87
2023/09/16 07:53:47;;;;;;;5.30;4.80;;;19.30;1.00;;;;;;5016346;28;20417;-88
2023/09/16 07:56:16;;;;;;;4.10;3.80;;;19.80;1.00;;;;;;5023341;28;20527;-89
2023/09/16 07:58:41;;;;;;;4.13;3.80;;;22.10;1.00;;;;;;5023358;28;20472;-88
2023/09/16 08:01:07;;;;;;;4.10;3.80;;;19.50;1.00;;;;;;5016545;28;20394;-88
2023/09/16 08:03:32;;;;;;;4.75;4.35;;;19.60;1.00;;;;;;5016991;28;20450;-87
2023/09/16 08:05:59;;;;;;;4.53;4.10;;;22.40;1.00;;;;;;5008026;28;20403;-89
2023/09/16 08:08:24;;;;;;;5.73;4.20;;;21.70;1.00;;;;;;4984055;28;20398;-88
2023/09/16 08:10:51;;;;;;;4.43;4.03;;;19.80;1.00;;;;;;4994799;28;20422;-87
2023/09/16 08:13:18;;;;;;;4.47;4.18;;;22.10;1.00;;;;;;5007244;28;20529;-89
2023/09/16 08:15:43;;;;;;;4.10;3.70;;;19.80;1.00;;;;;;4995357;28;20914;-88
2023/09/16 08:18:09;;;;;;;4.53;4.17;;;22.10;1.00;;;;;;4996146;28;20465;-87
2023/09/16 08:20:35;;;;;;;4.40;4.00;;;20.00;1.00;;;;;;4994059;28;20489;-89
2023/09/16 08:23:00;;;;;;;3.97;3.57;;;21.90;1.00;;;;;;4991819;28;20398;-89
2023/09/16 08:25:28;;;;;;;4.00;3.70;;;20.40;1.00;;;;;;4979356;28;20485;-87
2023/09/16 08:27:54;;;;;;;4.63;4.22;;;22.20;1.00;;;;;;4986783;28;20396;-88
2023/09/16 08:30:21;;;;;;;4.80;4.40;;;20.70;1.00;;;;;;4972910;28;20499;-88
2023/09/16 08:32:47;;;;;;;5.03;4.53;;;22.20;1.00;;;;;;4975504;28;20388;-87
2023/09/16 08:35:12;;;;;;;4.22;3.83;;;22.70;1.00;;;;;;4985792;28;20460;-87
2023/09/16 08:37:38;;;;;;;5.30;4.80;;;20.90;1.00;;;;;;5003925;28;20439;-88
2023/09/16 08:40:04;;;;;;;6.68;4.88;;;20.60;1.00;;;;;;4974537;28;20408;-89
2023/09/16 08:42:39;;;;;;;4.70;4.30;;;20.50;1.00;;;;;;4975312;28;20392;-89
2023/09/16 08:45:07;;;;;;;5.10;4.35;;;22.70;1.00;;;;;;4973256;28;20431;-89
2023/09/16 08:47:34;;;;;;;5.18;4.68;;;20.60;1.00;;;;;;4975041;28;20407;-88
2023/09/16 08:50:08;;;;;;;4.47;4.18;;;22.40;1.00;;;;;;4973087;28;20414;-89
2023/09/16 08:52:59;;;;;;;6.30;4.68;;;20.70;1.00;;;;;;4982453;28;20855;-88
2023/09/16 08:55:24;;;;;;;5.03;4.53;;;21.40;1.00;;;;;;4994961;28;20883;-89
2023/09/16 08:58:09;;;;;;;7.57;4.80;;;21.00;1.00;;;;;;4999696;28;20478;-88
2023/09/16 09:00:39;;;;;;;5.10;4.70;;;20.80;1.00;;;;;;5015052;28;20396;-88
2023/09/16 09:03:05;;;;;;;6.45;5.10;;;20.20;1.00;;;;;;5002070;28;20471;-88
2023/09/16 09:05:35;;;;;;;5.68;5.18;;;21.70;1.00;;;;;;4991801;28;20457;-88
2023/09/16 09:08:02;;;;;;;5.40;4.90;;;22.40;1.00;;;;;;4991797;28;20406;-84
2023/09/16 09:10:27;;;;;;;7.15;4.80;;;20.90;1.00;;;;;;5001686;28;20509;-84
2023/09/16 09:12:54;;;;;;;6.53;5.38;;;20.90;1.00;;;;;;5000637;28;20414;-84
2023/09/16 09:15:21;;;;;;;5.77;4.87;;;20.30;1.00;;;;;;5000791;28;20887;-84
2023/09/16 09:17:52;;;;;;;5.30;4.80;;;21.60;1.00;;;;;;4999109;28;20413;-84
2023/09/16 09:20:23;;;;;;;5.20;4.70;;;21.40;1.00;;;;;;5008472;28;20400;-84
2023/09/16 09:22:51;;;;;;;5.00;4.60;;;21.30;1.00;;;;;;5018935;28;20384;-84
2023/09/16 09:25:21;;;;;;;5.15;4.75;;;20.40;1.00;;;;;;5019273;28;20405;-84
2023/09/16 09:27:48;;;;;;;6.20;4.95;;;20.90;1.00;;;;;;5012734;28;20403;-84
2023/09/16 09:30:14;;;;;;;5.00;4.60;;;22.00;1.00;;;;;;5000653;28;20502;-84
2023/09/16 09:32:44;;;;;;;5.40;4.90;;;21.10;1.00;;;;;;4999866;28;21185;-84
2023/09/16 09:35:11;;;;;;;4.63;4.22;;;21.90;1.00;;;;;;4983695;28;20392;-84
2023/09/16 09:37:40;;;;;;;6.20;4.60;;;21.10;1.00;;;;;;4980722;28;20392;-83
2023/09/16 09:40:11;;;;;;;4.90;4.40;;;22.60;1.00;;;;;;4981537;28;20414;-84
2023/09/16 09:42:42;;;;;;;5.40;4.90;;;21.10;1.00;;;;;;4979129;28;20431;-84
2023/09/16 09:45:09;;;;;;;4.80;4.40;;;20.50;1.00;;;;;;4981986;28;20399;-83
2023/09/16 09:47:36;;;;;;;5.13;4.45;;;21.10;1.00;;;;;;4982842;28;20411;-84
2023/09/16 09:50:03;;;;;;;5.40;4.90;;;23.20;1.00;;;;;;4980226;28;20447;-83
2023/09/16 09:52:30;;;;;;;5.30;4.80;;;21.30;1.00;;;;;;4980695;28;20388;-84
2023/09/16 09:54:57;;;;;;;5.20;4.70;;;21.20;1.00;;;;;;4980389;28;20423;-84
2023/09/16 09:57:23;;;;;;;5.32;4.82;;;23.10;1.00;;;;;;4998813;28;20413;-83
2023/09/16 09:59:49;;;;;;;4.60;4.20;;;21.00;1.00;;;;;;5000642;28;20458;-83
2023/09/16 10:02:15;;;;;;;5.18;4.68;;;21.80;1.00;;;;;;5001447;28;20419;-83
2023/09/16 10:04:41;;;;;;;4.80;4.40;;;21.60;1.00;;;;;;4986492;28;20436;-84
2023/09/16 10:07:08;;;;;;;5.00;4.60;;;22.10;1.00;;;;;;4980032;28;20451;-84
2023/09/16 10:09:34;;;;;;;4.82;4.43;;;21.90;1.00;;;;;;4983955;28;20475;-83
2023/09/16 10:12:03;;;;;;;5.07;4.57;;;21.30;1.00;;;;;;4984908;28;20962;-83
2023/09/16 10:14:32;;;;;;;5.22;4.82;;;22.10;1.00;;;;;;4996675;28;20433;-84
2023/09/16 10:16:58;;;;;;;5.30;4.80;;;22.80;1.00;;;;;;5004129;28;20398;-84
2023/09/16 10:19:25;;;;;;;5.45;4.80;;;23.30;1.00;;;;;;4997221;28;20761;-83
2023/09/16 10:21:52;;;;;;;5.40;5.00;;;23.60;1.00;;;;;;5021491;28;20469;-83
2023/09/16 10:24:18;;;;;;;5.00;4.60;;;23.70;1.00;;;;;;5029258;28;20385;-82
2023/09/16 10:26:43;;;;;;;5.00;4.60;;;22.60;1.00;;;;;;5033382;28;20403;-82
2023/09/16 10:29:12;;;;;;;5.40;5.00;;;23.60;1.00;;;;;;5024724;28;20415;-83
2023/09/16 10:31:40;;;;;;;5.68;5.18;;;22.50;1.00;;;;;;5002758;28;20404;-83
2023/09/16 10:34:06;;;;;;;5.13;4.72;;;22.70;1.00;;;;;;4985030;28;20388;-84
2023/09/16 10:36:35;;;;;;;5.30;4.90;;;22.60;1.00;;;;;;4985089;28;20809;-84
2023/09/16 10:39:01;;;;;;;5.20;4.70;;;21.90;1.00;;;;;;4984730;28;20816;-84
2023/09/16 10:41:29;;;;;;;5.57;5.07;;;23.00;1.00;;;;;;4985432;28;20399;-83
2023/09/16 10:44:01;;;;;;;6.85;4.95;;;22.70;1.00;;;;;;4986417;28;20416;-83
2023/09/16 10:46:29;;;;;;;5.13;4.63;;;22.90;1.00;;;;;;4992066;28;20405;-83
2023/09/16 10:48:55;;;;;;;5.18;4.78;;;24.80;1.00;;;;;;5008443;28;20398;-83
2023/09/16 10:51:23;;;;;;;4.60;4.20;;;23.70;1.00;;;;;;5003697;28;20426;-83
2023/09/16 10:54:00;;;;;;;4.50;4.07;;;23.60;1.00;;;;;;5004094;28;20397;-84
2023/09/16 10:56:30;;;;;;;4.70;4.20;;;24.80;1.00;;;;;;4999109;28;20392;-84
2023/09/16 10:59:00;;;;;;;4.75;4.35;;;24.30;1.00;;;;;;4983773;28;20399;-84
2023/09/16 11:01:34;;;;;;;4.82;4.32;;;24.50;1.00;;;;;;4984651;28;20392;-84
2023/09/16 11:04:23;;;;;;;4.18;3.83;;;23.60;1.00;;;;;;4996492;28;20453;-83
2023/09/16 11:06:50;;;;;;;5.10;4.70;;;24.00;1.00;;;;;;5004240;28;20390;-83
2023/09/16 11:09:22;;;;;;;4.22;3.83;;;23.80;1.00;;;;;;5002571;28;20560;-83
2023/09/16 11:11:48;;;;;;;4.50;4.10;;;23.70;1.00;;;;;;5002601;28;20389;-83
2023/09/16 11:14:15;;;;;;;4.78;4.38;;;24.20;1.00;;;;;;4990608;28;20441;-83
2023/09/16 11:16:45;;;;;;;4.70;4.20;;;23.70;1.00;;;;;;4983152;28;20395;-83
2023/09/16 11:19:19;;;;;;;4.75;4.45;;;24.40;1.00;;;;;;4990947;28;20478;-83
2023/09/16 11:21:45;;;;;;;5.40;4.97;;;24.40;1.00;;;;;;5023474;28;20464;-83
2023/09/16 11:24:14;;;;;;;5.20;4.30;;;24.40;1.00;;;;;;5027231;28;20416;-83
2023/09/16 11:26:40;;;;;;;4.97;4.57;;;25.40;1.00;;;;;;5034004;28;20428;-83
2023/09/16 11:29:38;;;;;;;4.88;4.38;;;25.90;1.00;;;;;;5027869;28;20429;-82
2023/09/16 11:32:05;;;;;;;4.70;4.30;;;26.20;1.00;;;;;;4982716;28;20371;-82
2023/09/16 11:34:32;;;;;;;4.80;4.40;;;26.70;1.00;;;;;;5007543;28;20438;-83
2023/09/16 11:37:01;;;;;;;4.90;4.40;;;27.30;1.00;;;;;;5003302;28;20387;-82
2023/09/16 11:39:42;;;;;;;4.32;4.03;;;27.70;1.00;;;;;;5001466;28;20484;-83
2023/09/16 11:42:08;;;;;;;4.00;3.70;;;28.30;1.00;;;;;;5003155;28;20435;-83
2023/09/16 11:44:35;;;;;;;4.15;3.85;;;27.60;1.00;;;;;;5002954;28;20379;-83
2023/09/16 11:47:03;;;;;;;4.55;4.15;;;27.40;1.00;;;;;;5001928;28;20402;-83
2023/09/16 11:49:33;;;;;;;4.40;4.00;;;27.00;1.00;;;;;;4985011;28;20486;-83
2023/09/16 11:51:59;;;;;;;4.80;4.40;;;26.70;1.00;;;;;;4978875;28;20388;-84
2023/09/16 11:54:25;;;;;;;4.90;4.40;;;26.50;1.00;;;;;;4980797;28;20396;-83
2023/09/16 11:56:55;;;;;;;4.55;4.25;;;27.00;1.00;;;;;;4981444;28;20388;-83
2023/09/16 11:59:21;;;;;;;4.40;4.10;;;25.60;1.00;;;;;;4980714;28;20442;-84
2023/09/16 12:01:48;;;;;;;4.90;4.40;;;25.20;1.00;;;;;;4980886;28;20908;-83
2023/09/16 12:04:15;;;;;;;4.60;4.00;;;25.00;1.00;;;;;;4982635;28;20423;-83
2023/09/16 12:06:41;;;;;;;4.70;4.40;;;25.80;1.00;;;;;;5001447;28;20403;-83
2023/09/16 12:09:10;;;;;;;5.05;4.65;;;24.70;1.00;;;;;;5004050;28;20395;-83
2023/09/16 12:11:38;;;;;;;4.93;4.43;;;26.00;1.00;;;;;;5001188;28;20405;-83
2023/09/16 12:14:06;;;;;;;4.60;4.20;;;25.40;1.00;;;;;;5000779;28;20399;-83
2023/09/16 12:16:32;;;;;;;5.35;4.85;;;25.30;1.00;;;;;;5006227;28;20390;-82
2023/09/16 12:18:58;;;;;;;4.63;4.23;;;25.80;1.00;;;;;;5011513;28;20517;-83
2023/09/16 12:21:24;;;;;;;4.63;4.22;;;24.90;1.00;;;;;;4986288;28;20482;-83
2023/09/16 12:23:51;;;;;;;4.57;4.18;;;24.80;1.00;;;;;;4986694;28;20440;-83
2023/09/16 12:26:18;;;;;;;5.10;4.70;;;24.60;1.00;;;;;;5002703;28;20453;-83
2023/09/16 12:28:44;;;;;;;4.43;4.13;;;25.30;1.00;;;;;;5003557;28;20398;-83
2023/09/16 12:31:11;;;;;;;5.50;5.00;;;24.70;1.00;;;;;;5005747;28;20410;-83
2023/09/16 12:33:44;;;;;;;4.60;4.30;;;24.60;1.00;;;;;;5004950;28;20394;-83
2023/09/16 12:36:21;;;;;;;5.05;4.65;;;24.80;1.00;;;;;;4982461;28;20432;-84
2023/09/16 12:38:48;;;;;;;5.00;4.60;;;24.40;1.00;;;;;;4980718;28;20435;-84
2023/09/16 12:41:15;;;;;;;4.97;4.57;;;24.80;1.00;;;;;;4981829;28;20436;-84
2023/09/16 12:43:43;;;;;;;4.95;4.55;;;24.30;1.00;;;;;;4982761;28;20801;-84
2023/09/16 12:46:11;;;;;;;4.80;4.40;;;24.80;1.00;;;;;;4983836;28;20443;-84
2023/09/16 12:48:39;;;;;;;4.90;4.40;;;26.10;1.00;;;;;;5006385;28;20406;-85
2023/09/16 12:51:06;;;;;;;5.50;5.10;;;25.40;1.00;;;;;;5001446;28;20469;-84
2023/09/16 12:53:33;;;;;;;5.10;4.60;;;25.20;1.00;;;;;;5000368;28;20890;-84
2023/09/16 12:56:02;;;;;;;4.72;4.32;;;24.90;1.00;;;;;;4992419;28;20943;-84
2023/09/16 12:58:29;;;;;;;6.63;4.70;;;25.00;1.00;;;;;;4983013;28;20400;-83
2023/09/16 13:00:54;;;;;;;5.47;4.97;;;26.00;1.00;;;;;;4982700;28;20389;-84